sensor_id;sensor_type;location;lat;lon;timestamp;P1;durP1;ratioP1;P2;durP2;ratioP2
23614;SDS011;11985;49.404;7.734;2022-07-29T00:01:35;5.30;;;2.35;;
23614;SDS011;11985;49.404;7.734;2022-07-29T00:03:36;8.52;;;2.10;;
23614;SDS011;11985;49.404;7.734;2022-07-29T00:05:38;2.83;;;1.92;;
23614;SDS011;11985;49.404;7.734;2022-07-29T00:07:40;6.97;;;2.38;;
23614;SDS011;11985;49.404;7.734;2022-07-29T00:09:47;6.72;;;2.20;;
23614;SDS011;11985;49.404;7.734;2022-07-29T00:11:49;7.18;;;2.10;;
23614;SDS011;11985;49.404;7.734;2022-07-29T00:13:50;5.25;;;2.47;;
23614;SDS011;11985;49.404;7.734;2022-07-29T00:15:52;3.25;;;2.40;;
23614;SDS011;11985;49.404;7.734;2022-07-29T00:17:54;5.00;;;2.28;;
23614;SDS011;11985;49.404;7.734;2022-07-29T00:19:55;3.78;;;2.28;;
23614;SDS011;11985;49.404;7.734;2022-07-29T00:21:57;4.15;;;2.15;;
23614;SDS011;11985;49.404;7.734;2022-07-29T00:23:58;5.45;;;2.70;;
23614;SDS011;11985;49.404;7.734;2022-07-29T00:26:01;3.55;;;2.03;;
23614;SDS011;11985;49.404;7.734;2022-07-29T00:28:03;6.40;;;2.28;;
23614;SDS011;11985;49.404;7.734;2022-07-29T00:30:06;6.60;;;2.55;;
23614;SDS011;11985;49.404;7.734;2022-07-29T00:32:08;5.82;;;2.70;;
23614;SDS011;11985;49.404;7.734;2022-07-29T00:34:10;2.90;;;2.00;;
23614;SDS011;11985;49.404;7.734;2022-07-29T00:36:26;5.82;;;2.53;;
23614;SDS011;11985;49.404;7.734;2022-07-29T00:38:27;3.78;;;2.55;;
23614;SDS011;11985;49.404;7.734;2022-07-29T00:40:29;4.78;;;2.40;;
23614;SDS011;11985;49.404;7.734;2022-07-29T00:44:42;4.88;;;2.05;;
23614;SDS011;11985;49.404;7.734;2022-07-29T00:46:43;4.80;;;2.10;;
23614;SDS011;11985;49.404;7.734;2022-07-29T00:48:45;5.30;;;2.22;;
23614;SDS011;11985;49.404;7.734;2022-07-29T00:50:47;3.42;;;2.10;;
23614;SDS011;11985;49.404;7.734;2022-07-29T00:52:50;3.40;;;2.00;;
23614;SDS011;11985;49.404;7.734;2022-07-29T00:54:53;9.55;;;2.53;;
23614;SDS011;11985;49.404;7.734;2022-07-29T00:56:55;8.20;;;2.53;;
23614;SDS011;11985;49.404;7.734;2022-07-29T00:59:00;5.90;;;2.05;;
23614;SDS011;11985;49.404;7.734;2022-07-29T01:01:01;2.60;;;1.77;;
23614;SDS011;11985;49.404;7.734;2022-07-29T01:03:03;5.65;;;1.90;;
23614;SDS011;11985;49.404;7.734;2022-07-29T01:05:05;6.03;;;1.98;;
23614;SDS011;11985;49.404;7.734;2022-07-29T01:07:08;4.38;;;1.90;;
23614;SDS011;11985;49.404;7.734;2022-07-29T01:09:10;5.20;;;2.03;;
23614;SDS011;11985;49.404;7.734;2022-07-29T01:11:13;8.30;;;2.92;;
23614;SDS011;11985;49.404;7.734;2022-07-29T01:13:15;2.95;;;2.00;;
23614;SDS011;11985;49.404;7.734;2022-07-29T01:15:19;4.63;;;2.13;;
23614;SDS011;11985;49.404;7.734;2022-07-29T01:17:22;4.95;;;1.90;;
23614;SDS011;11985;49.404;7.734;2022-07-29T01:19:33;6.20;;;1.80;;
23614;SDS011;11985;49.404;7.734;2022-07-29T01:21:50;6.40;;;1.80;;
23614;SDS011;11985;49.404;7.734;2022-07-29T01:24:06;4.10;;;1.90;;
23614;SDS011;11985;49.404;7.734;2022-07-29T01:26:22;3.90;;;2.10;;
23614;SDS011;11985;49.404;7.734;2022-07-29T01:28:37;5.75;;;2.17;;
23614;SDS011;11985;49.404;7.734;2022-07-29T01:30:45;2.92;;;1.98;;
23614;SDS011;11985;49.404;7.734;2022-07-29T01:32:52;3.83;;;2.00;;
23614;SDS011;11985;49.404;7.734;2022-07-29T01:34:58;3.88;;;1.58;;
23614;SDS011;11985;49.404;7.734;2022-07-29T01:37:06;6.63;;;2.22;;
23614;SDS011;11985;49.404;7.734;2022-07-29T01:39:16;2.28;;;1.77;;
23614;SDS011;11985;49.404;7.734;2022-07-29T01:41:23;5.35;;;1.90;;
23614;SDS011;11985;49.404;7.734;2022-07-29T01:43:32;6.40;;;2.53;;
23614;SDS011;11985;49.404;7.734;2022-07-29T01:45:39;5.63;;;1.90;;
23614;SDS011;11985;49.404;7.734;2022-07-29T01:47:44;4.38;;;2.22;;
23614;SDS011;11985;49.404;7.734;2022-07-29T01:49:52;5.20;;;2.13;;
23614;SDS011;11985;49.404;7.734;2022-07-29T01:51:58;3.95;;;2.00;;
23614;SDS011;11985;49.404;7.734;2022-07-29T01:54:04;10.30;;;2.90;;
23614;SDS011;11985;49.404;7.734;2022-07-29T01:56:11;3.25;;;2.42;;
23614;SDS011;11985;49.404;7.734;2022-07-29T01:58:15;4.82;;;2.05;;
23614;SDS011;11985;49.404;7.734;2022-07-29T02:00:20;6.07;;;2.00;;
23614;SDS011;11985;49.404;7.734;2022-07-29T02:02:25;3.53;;;1.80;;
23614;SDS011;11985;49.404;7.734;2022-07-29T02:04:28;7.82;;;2.58;;
23614;SDS011;11985;49.404;7.734;2022-07-29T02:06:34;4.28;;;2.05;;
23614;SDS011;11985;49.404;7.734;2022-07-29T02:08:39;2.28;;;1.60;;
23614;SDS011;11985;49.404;7.734;2022-07-29T02:10:41;5.82;;;2.70;;
23614;SDS011;11985;49.404;7.734;2022-07-29T02:12:45;3.35;;;2.00;;
23614;SDS011;11985;49.404;7.734;2022-07-29T02:14:49;6.20;;;2.10;;
23614;SDS011;11985;49.404;7.734;2022-07-29T02:16:54;4.85;;;1.92;;
23614;SDS011;11985;49.404;7.734;2022-07-29T02:19:00;5.95;;;1.92;;
23614;SDS011;11985;49.404;7.734;2022-07-29T02:21:03;5.97;;;1.80;;
23614;SDS011;11985;49.404;7.734;2022-07-29T02:23:05;2.72;;;1.98;;
23614;SDS011;11985;49.404;7.734;2022-07-29T02:25:10;4.90;;;1.80;;
23614;SDS011;11985;49.404;7.734;2022-07-29T02:27:13;1.90;;;1.67;;
23614;SDS011;11985;49.404;7.734;2022-07-29T02:29:16;6.38;;;2.28;;
23614;SDS011;11985;49.404;7.734;2022-07-29T02:31:21;7.85;;;2.20;;
23614;SDS011;11985;49.404;7.734;2022-07-29T02:33:26;6.50;;;1.90;;
23614;SDS011;11985;49.404;7.734;2022-07-29T02:35:30;4.88;;;1.85;;
23614;SDS011;11985;49.404;7.734;2022-07-29T02:37:32;3.47;;;1.80;;
23614;SDS011;11985;49.404;7.734;2022-07-29T02:39:35;6.30;;;1.92;;
23614;SDS011;11985;49.404;7.734;2022-07-29T02:41:41;6.80;;;2.15;;
23614;SDS011;11985;49.404;7.734;2022-07-29T02:43:46;3.45;;;1.85;;
23614;SDS011;11985;49.404;7.734;2022-07-29T02:45:51;5.50;;;2.10;;
23614;SDS011;11985;49.404;7.734;2022-07-29T02:47:56;6.03;;;2.00;;
23614;SDS011;11985;49.404;7.734;2022-07-29T02:50:02;3.30;;;2.10;;
23614;SDS011;11985;49.404;7.734;2022-07-29T02:52:12;5.25;;;2.20;;
23614;SDS011;11985;49.404;7.734;2022-07-29T02:54:22;6.80;;;2.05;;
23614;SDS011;11985;49.404;7.734;2022-07-29T02:56:27;8.32;;;2.00;;
23614;SDS011;11985;49.404;7.734;2022-07-29T02:58:37;7.47;;;2.67;;
23614;SDS011;11985;49.404;7.734;2022-07-29T03:00:41;4.75;;;2.10;;
23614;SDS011;11985;49.404;7.734;2022-07-29T03:02:45;6.82;;;2.20;;
23614;SDS011;11985;49.404;7.734;2022-07-29T03:04:51;4.35;;;1.98;;
23614;SDS011;11985;49.404;7.734;2022-07-29T03:06:56;5.03;;;1.90;;
23614;SDS011;11985;49.404;7.734;2022-07-29T03:09:02;5.88;;;2.05;;
23614;SDS011;11985;49.404;7.734;2022-07-29T03:11:04;4.25;;;2.17;;
23614;SDS011;11985;49.404;7.734;2022-07-29T03:17:10;2.78;;;1.98;;
23614;SDS011;11985;49.404;7.734;2022-07-29T03:19:13;7.60;;;1.90;;
23614;SDS011;11985;49.404;7.734;2022-07-29T03:21:15;6.10;;;2.40;;
23614;SDS011;11985;49.404;7.734;2022-07-29T03:23:18;4.63;;;2.08;;
23614;SDS011;11985;49.404;7.734;2022-07-29T03:25:22;5.38;;;2.15;;
23614;SDS011;11985;49.404;7.734;2022-07-29T03:27:23;4.65;;;2.20;;
23614;SDS011;11985;49.404;7.734;2022-07-29T03:29:25;4.57;;;2.67;;
23614;SDS011;11985;49.404;7.734;2022-07-29T03:31:28;10.63;;;3.00;;
23614;SDS011;11985;49.404;7.734;2022-07-29T03:33:29;6.13;;;2.28;;
23614;SDS011;11985;49.404;7.734;2022-07-29T03:35:31;3.40;;;2.45;;
23614;SDS011;11985;49.404;7.734;2022-07-29T03:37:32;5.13;;;2.22;;
23614;SDS011;11985;49.404;7.734;2022-07-29T03:39:38;7.22;;;2.75;;
23614;SDS011;11985;49.404;7.734;2022-07-29T03:41:43;8.35;;;2.65;;
23614;SDS011;11985;49.404;7.734;2022-07-29T03:43:47;4.25;;;2.67;;
23614;SDS011;11985;49.404;7.734;2022-07-29T03:45:51;4.50;;;2.88;;
23614;SDS011;11985;49.404;7.734;2022-07-29T03:47:56;5.57;;;2.25;;
23614;SDS011;11985;49.404;7.734;2022-07-29T03:50:04;6.57;;;2.35;;
23614;SDS011;11985;49.404;7.734;2022-07-29T03:52:07;3.42;;;2.13;;
23614;SDS011;11985;49.404;7.734;2022-07-29T03:54:09;3.22;;;2.35;;
23614;SDS011;11985;49.404;7.734;2022-07-29T03:56:12;4.10;;;2.53;;
23614;SDS011;11985;49.404;7.734;2022-07-29T03:58:18;3.15;;;2.25;;
23614;SDS011;11985;49.404;7.734;2022-07-29T04:00:20;3.45;;;2.40;;
23614;SDS011;11985;49.404;7.734;2022-07-29T04:02:24;6.63;;;2.35;;
23614;SDS011;11985;49.404;7.734;2022-07-29T04:04:26;5.10;;;2.72;;
23614;SDS011;11985;49.404;7.734;2022-07-29T04:06:28;4.55;;;2.47;;
23614;SDS011;11985;49.404;7.734;2022-07-29T04:08:29;3.88;;;2.33;;
23614;SDS011;11985;49.404;7.734;2022-07-29T04:10:31;5.90;;;2.75;;
23614;SDS011;11985;49.404;7.734;2022-07-29T04:12:33;5.43;;;2.90;;
23614;SDS011;11985;49.404;7.734;2022-07-29T04:14:36;5.15;;;2.40;;
23614;SDS011;11985;49.404;7.734;2022-07-29T04:16:38;4.32;;;2.55;;
23614;SDS011;11985;49.404;7.734;2022-07-29T04:18:39;8.07;;;2.58;;
23614;SDS011;11985;49.404;7.734;2022-07-29T04:20:41;5.28;;;2.42;;
23614;SDS011;11985;49.404;7.734;2022-07-29T04:24:44;7.88;;;2.53;;
23614;SDS011;11985;49.404;7.734;2022-07-29T04:26:46;7.00;;;3.20;;
23614;SDS011;11985;49.404;7.734;2022-07-29T04:28:48;7.28;;;2.80;;
23614;SDS011;11985;49.404;7.734;2022-07-29T04:30:51;7.93;;;2.67;;
23614;SDS011;11985;49.404;7.734;2022-07-29T04:32:52;8.05;;;2.30;;
23614;SDS011;11985;49.404;7.734;2022-07-29T04:34:54;6.53;;;2.83;;
23614;SDS011;11985;49.404;7.734;2022-07-29T04:36:58;14.32;;;7.53;;
23614;SDS011;11985;49.404;7.734;2022-07-29T04:39:00;9.77;;;5.60;;
23614;SDS011;11985;49.404;7.734;2022-07-29T04:41:02;10.23;;;3.42;;
23614;SDS011;11985;49.404;7.734;2022-07-29T04:43:03;4.80;;;2.97;;
23614;SDS011;11985;49.404;7.734;2022-07-29T04:45:06;3.55;;;2.95;;
23614;SDS011;11985;49.404;7.734;2022-07-29T04:47:09;7.03;;;3.30;;
23614;SDS011;11985;49.404;7.734;2022-07-29T04:49:11;5.47;;;3.08;;
23614;SDS011;11985;49.404;7.734;2022-07-29T04:53:15;7.13;;;2.88;;
23614;SDS011;11985;49.404;7.734;2022-07-29T04:55:17;7.63;;;2.88;;
23614;SDS011;11985;49.404;7.734;2022-07-29T04:59:20;9.32;;;3.30;;
23614;SDS011;11985;49.404;7.734;2022-07-29T05:01:22;7.03;;;3.20;;
23614;SDS011;11985;49.404;7.734;2022-07-29T05:03:25;4.53;;;3.13;;
23614;SDS011;11985;49.404;7.734;2022-07-29T05:05:27;5.93;;;3.70;;
23614;SDS011;11985;49.404;7.734;2022-07-29T05:07:28;8.13;;;3.60;;
23614;SDS011;11985;49.404;7.734;2022-07-29T05:09:30;8.15;;;3.38;;
23614;SDS011;11985;49.404;7.734;2022-07-29T05:11:32;6.60;;;3.83;;
23614;SDS011;11985;49.404;7.734;2022-07-29T05:13:33;8.98;;;3.47;;
23614;SDS011;11985;49.404;7.734;2022-07-29T05:15:35;6.90;;;3.05;;
23614;SDS011;11985;49.404;7.734;2022-07-29T05:17:37;10.60;;;3.60;;
23614;SDS011;11985;49.404;7.734;2022-07-29T05:19:40;6.05;;;2.88;;
23614;SDS011;11985;49.404;7.734;2022-07-29T05:21:42;7.80;;;3.00;;
23614;SDS011;11985;49.404;7.734;2022-07-29T05:23:45;4.43;;;2.75;;
23614;SDS011;11985;49.404;7.734;2022-07-29T05:25:46;4.47;;;2.95;;
23614;SDS011;11985;49.404;7.734;2022-07-29T05:27:48;11.02;;;3.40;;
23614;SDS011;11985;49.404;7.734;2022-07-29T05:29:50;6.35;;;3.53;;
23614;SDS011;11985;49.404;7.734;2022-07-29T05:33:53;8.13;;;3.20;;
23614;SDS011;11985;49.404;7.734;2022-07-29T05:35:56;5.85;;;3.17;;
23614;SDS011;11985;49.404;7.734;2022-07-29T05:37:57;6.22;;;3.17;;
23614;SDS011;11985;49.404;7.734;2022-07-29T05:42:00;4.22;;;2.60;;
23614;SDS011;11985;49.404;7.734;2022-07-29T05:44:02;4.55;;;2.63;;
23614;SDS011;11985;49.404;7.734;2022-07-29T05:48:06;7.93;;;2.55;;
23614;SDS011;11985;49.404;7.734;2022-07-29T05:52:11;3.97;;;2.30;;
23614;SDS011;11985;49.404;7.734;2022-07-29T05:54:13;5.18;;;2.70;;
23614;SDS011;11985;49.404;7.734;2022-07-29T05:58:16;4.97;;;3.10;;
23614;SDS011;11985;49.404;7.734;2022-07-29T06:00:17;6.13;;;2.75;;
23614;SDS011;11985;49.404;7.734;2022-07-29T06:02:19;3.28;;;2.33;;
23614;SDS011;11985;49.404;7.734;2022-07-29T06:06:22;5.78;;;2.58;;
23614;SDS011;11985;49.404;7.734;2022-07-29T06:10:27;9.48;;;2.60;;
23614;SDS011;11985;49.404;7.734;2022-07-29T06:12:28;12.27;;;3.53;;
23614;SDS011;11985;49.404;7.734;2022-07-29T06:16:32;6.97;;;2.65;;
23614;SDS011;11985;49.404;7.734;2022-07-29T06:20:35;4.43;;;2.83;;
23614;SDS011;11985;49.404;7.734;2022-07-29T06:22:37;6.60;;;3.00;;
23614;SDS011;11985;49.404;7.734;2022-07-29T06:24:40;4.43;;;2.58;;
23614;SDS011;11985;49.404;7.734;2022-07-29T06:26:44;4.35;;;2.25;;
23614;SDS011;11985;49.404;7.734;2022-07-29T06:30:46;4.45;;;2.58;;
23614;SDS011;11985;49.404;7.734;2022-07-29T06:34:50;3.70;;;2.53;;
23614;SDS011;11985;49.404;7.734;2022-07-29T06:36:52;5.40;;;2.60;;
23614;SDS011;11985;49.404;7.734;2022-07-29T06:40:56;7.60;;;2.60;;
23614;SDS011;11985;49.404;7.734;2022-07-29T06:43:00;5.82;;;3.03;;
23614;SDS011;11985;49.404;7.734;2022-07-29T06:47:03;3.80;;;2.33;;
23614;SDS011;11985;49.404;7.734;2022-07-29T06:49:04;4.20;;;2.67;;
23614;SDS011;11985;49.404;7.734;2022-07-29T06:51:06;4.05;;;2.28;;
23614;SDS011;11985;49.404;7.734;2022-07-29T06:55:09;8.07;;;2.33;;
23614;SDS011;11985;49.404;7.734;2022-07-29T06:59:14;4.80;;;2.53;;
23614;SDS011;11985;49.404;7.734;2022-07-29T07:03:17;7.22;;;2.10;;
23614;SDS011;11985;49.404;7.734;2022-07-29T07:05:19;5.43;;;2.10;;
23614;SDS011;11985;49.404;7.734;2022-07-29T07:07:21;4.15;;;2.15;;
23614;SDS011;11985;49.404;7.734;2022-07-29T07:09:22;5.07;;;2.20;;
23614;SDS011;11985;49.404;7.734;2022-07-29T07:13:27;3.28;;;2.42;;
23614;SDS011;11985;49.404;7.734;2022-07-29T07:15:35;7.95;;;2.72;;
23614;SDS011;11985;49.404;7.734;2022-07-29T07:17:37;10.73;;;2.53;;
23614;SDS011;11985;49.404;7.734;2022-07-29T07:19:39;4.57;;;2.80;;
23614;SDS011;11985;49.404;7.734;2022-07-29T07:23:42;4.85;;;2.55;;
23614;SDS011;11985;49.404;7.734;2022-07-29T07:27:45;7.20;;;2.75;;
23614;SDS011;11985;49.404;7.734;2022-07-29T07:29:48;5.88;;;2.60;;
23614;SDS011;11985;49.404;7.734;2022-07-29T07:31:50;6.97;;;2.80;;
23614;SDS011;11985;49.404;7.734;2022-07-29T07:33:52;5.97;;;2.20;;
23614;SDS011;11985;49.404;7.734;2022-07-29T07:35:54;3.88;;;2.30;;
23614;SDS011;11985;49.404;7.734;2022-07-29T07:39:57;7.00;;;2.20;;
23614;SDS011;11985;49.404;7.734;2022-07-29T07:41:59;5.15;;;2.70;;
23614;SDS011;11985;49.404;7.734;2022-07-29T07:44:04;4.55;;;2.33;;
23614;SDS011;11985;49.404;7.734;2022-07-29T07:46:07;6.13;;;2.72;;
23614;SDS011;11985;49.404;7.734;2022-07-29T07:48:10;6.40;;;2.80;;
23614;SDS011;11985;49.404;7.734;2022-07-29T07:50:13;8.38;;;2.78;;
23614;SDS011;11985;49.404;7.734;2022-07-29T07:52:18;4.80;;;2.65;;
23614;SDS011;11985;49.404;7.734;2022-07-29T07:54:22;5.55;;;3.05;;
23614;SDS011;11985;49.404;7.734;2022-07-29T07:56:23;6.90;;;2.88;;
23614;SDS011;11985;49.404;7.734;2022-07-29T08:00:26;5.25;;;2.47;;
23614;SDS011;11985;49.404;7.734;2022-07-29T08:02:29;4.78;;;2.50;;
23614;SDS011;11985;49.404;7.734;2022-07-29T08:04:31;8.20;;;2.83;;
23614;SDS011;11985;49.404;7.734;2022-07-29T08:06:33;5.75;;;2.80;;
23614;SDS011;11985;49.404;7.734;2022-07-29T08:08:36;8.23;;;3.17;;
23614;SDS011;11985;49.404;7.734;2022-07-29T08:12:53;3.42;;;2.47;;
23614;SDS011;11985;49.404;7.734;2022-07-29T08:16:58;6.10;;;2.75;;
23614;SDS011;11985;49.404;7.734;2022-07-29T08:21:03;7.13;;;2.60;;
23614;SDS011;11985;49.404;7.734;2022-07-29T08:23:05;6.55;;;2.80;;
23614;SDS011;11985;49.404;7.734;2022-07-29T08:25:09;10.98;;;3.00;;
23614;SDS011;11985;49.404;7.734;2022-07-29T08:29:13;3.58;;;2.50;;
23614;SDS011;11985;49.404;7.734;2022-07-29T08:31:14;10.35;;;3.20;;
23614;SDS011;11985;49.404;7.734;2022-07-29T08:33:17;4.00;;;2.85;;
23614;SDS011;11985;49.404;7.734;2022-07-29T08:35:28;5.20;;;2.47;;
23614;SDS011;11985;49.404;7.734;2022-07-29T08:37:30;4.50;;;2.40;;
23614;SDS011;11985;49.404;7.734;2022-07-29T08:41:34;5.50;;;2.67;;
23614;SDS011;11985;49.404;7.734;2022-07-29T08:43:39;6.95;;;2.45;;
23614;SDS011;11985;49.404;7.734;2022-07-29T08:45:42;7.82;;;2.60;;
23614;SDS011;11985;49.404;7.734;2022-07-29T08:47:45;7.93;;;2.63;;
23614;SDS011;11985;49.404;7.734;2022-07-29T08:49:48;4.03;;;2.65;;
23614;SDS011;11985;49.404;7.734;2022-07-29T08:51:51;6.25;;;2.42;;
23614;SDS011;11985;49.404;7.734;2022-07-29T08:53:55;3.55;;;2.70;;
23614;SDS011;11985;49.404;7.734;2022-07-29T08:55:57;4.90;;;2.30;;
23614;SDS011;11985;49.404;7.734;2022-07-29T08:58:02;6.63;;;2.78;;
23614;SDS011;11985;49.404;7.734;2022-07-29T09:00:07;5.03;;;2.58;;
23614;SDS011;11985;49.404;7.734;2022-07-29T09:02:16;5.20;;;2.88;;
23614;SDS011;11985;49.404;7.734;2022-07-29T09:04:20;4.00;;;2.47;;
23614;SDS011;11985;49.404;7.734;2022-07-29T09:06:25;9.43;;;2.50;;
23614;SDS011;11985;49.404;7.734;2022-07-29T09:08:34;5.43;;;3.00;;
23614;SDS011;11985;49.404;7.734;2022-07-29T09:10:36;4.30;;;2.58;;
23614;SDS011;11985;49.404;7.734;2022-07-29T09:12:40;5.00;;;2.58;;
23614;SDS011;11985;49.404;7.734;2022-07-29T09:14:43;4.93;;;2.67;;
23614;SDS011;11985;49.404;7.734;2022-07-29T09:18:47;3.92;;;2.30;;
23614;SDS011;11985;49.404;7.734;2022-07-29T09:20:50;4.30;;;2.60;;
23614;SDS011;11985;49.404;7.734;2022-07-29T09:25:32;4.13;;;2.40;;
23614;SDS011;11985;49.404;7.734;2022-07-29T09:27:37;3.97;;;2.50;;
23614;SDS011;11985;49.404;7.734;2022-07-29T09:29:39;4.72;;;2.75;;
23614;SDS011;11985;49.404;7.734;2022-07-29T09:31:41;6.75;;;2.80;;
23614;SDS011;11985;49.404;7.734;2022-07-29T09:33:45;7.38;;;2.50;;
23614;SDS011;11985;49.404;7.734;2022-07-29T09:35:57;4.97;;;2.47;;
23614;SDS011;11985;49.404;7.734;2022-07-29T09:38:09;5.15;;;2.40;;
23614;SDS011;11985;49.404;7.734;2022-07-29T09:42:17;5.40;;;2.60;;
23614;SDS011;11985;49.404;7.734;2022-07-29T09:44:42;4.40;;;2.67;;
23614;SDS011;11985;49.404;7.734;2022-07-29T09:46:55;4.38;;;2.70;;
23614;SDS011;11985;49.404;7.734;2022-07-29T09:49:07;5.68;;;2.63;;
23614;SDS011;11985;49.404;7.734;2022-07-29T09:51:16;3.95;;;2.53;;
23614;SDS011;11985;49.404;7.734;2022-07-29T09:53:32;5.50;;;2.60;;
23614;SDS011;11985;49.404;7.734;2022-07-29T09:55:45;9.85;;;3.00;;
23614;SDS011;11985;49.404;7.734;2022-07-29T09:57:49;5.80;;;2.95;;
23614;SDS011;11985;49.404;7.734;2022-07-29T10:00:00;4.43;;;2.40;;
23614;SDS011;11985;49.404;7.734;2022-07-29T10:02:11;6.65;;;2.65;;
23614;SDS011;11985;49.404;7.734;2022-07-29T10:04:13;9.23;;;2.65;;
23614;SDS011;11985;49.404;7.734;2022-07-29T10:06:16;8.57;;;2.53;;
23614;SDS011;11985;49.404;7.734;2022-07-29T10:08:25;3.80;;;2.63;;
23614;SDS011;11985;49.404;7.734;2022-07-29T10:10:27;6.55;;;2.75;;
23614;SDS011;11985;49.404;7.734;2022-07-29T10:12:34;8.20;;;3.10;;
23614;SDS011;11985;49.404;7.734;2022-07-29T10:14:53;3.95;;;2.53;;
23614;SDS011;11985;49.404;7.734;2022-07-29T10:17:04;9.27;;;2.58;;
23614;SDS011;11985;49.404;7.734;2022-07-29T10:19:06;5.35;;;2.70;;
23614;SDS011;11985;49.404;7.734;2022-07-29T10:21:10;3.83;;;2.30;;
23614;SDS011;11985;49.404;7.734;2022-07-29T10:23:14;5.40;;;2.88;;
23614;SDS011;11985;49.404;7.734;2022-07-29T10:25:16;5.32;;;2.80;;
23614;SDS011;11985;49.404;7.734;2022-07-29T10:27:20;12.23;;;3.40;;
23614;SDS011;11985;49.404;7.734;2022-07-29T10:29:25;5.03;;;2.65;;
23614;SDS011;11985;49.404;7.734;2022-07-29T10:31:29;5.13;;;3.10;;
23614;SDS011;11985;49.404;7.734;2022-07-29T10:33:51;5.28;;;2.67;;
23614;SDS011;11985;49.404;7.734;2022-07-29T10:36:07;10.13;;;2.63;;
23614;SDS011;11985;49.404;7.734;2022-07-29T10:40:45;4.57;;;2.63;;
23614;SDS011;11985;49.404;7.734;2022-07-29T10:43:16;4.53;;;2.40;;
23614;SDS011;11985;49.404;7.734;2022-07-29T10:45:22;6.10;;;2.83;;
23614;SDS011;11985;49.404;7.734;2022-07-29T10:47:24;7.20;;;2.40;;
23614;SDS011;11985;49.404;7.734;2022-07-29T10:49:29;6.65;;;2.97;;
23614;SDS011;11985;49.404;7.734;2022-07-29T10:53:54;3.97;;;2.50;;
23614;SDS011;11985;49.404;7.734;2022-07-29T10:55:58;5.85;;;2.63;;
23614;SDS011;11985;49.404;7.734;2022-07-29T10:58:13;4.22;;;2.90;;
23614;SDS011;11985;49.404;7.734;2022-07-29T11:00:32;5.65;;;2.50;;
23614;SDS011;11985;49.404;7.734;2022-07-29T11:02:45;5.47;;;2.60;;
23614;SDS011;11985;49.404;7.734;2022-07-29T11:05:01;7.03;;;2.47;;
23614;SDS011;11985;49.404;7.734;2022-07-29T11:07:06;10.60;;;2.78;;
23614;SDS011;11985;49.404;7.734;2022-07-29T11:09:16;7.13;;;2.35;;
23614;SDS011;11985;49.404;7.734;2022-07-29T11:11:32;7.80;;;2.58;;
23614;SDS011;11985;49.404;7.734;2022-07-29T11:15:54;5.53;;;2.13;;
23614;SDS011;11985;49.404;7.734;2022-07-29T11:18:04;2.97;;;2.00;;
23614;SDS011;11985;49.404;7.734;2022-07-29T11:22:39;3.50;;;2.27;;
23614;SDS011;11985;49.404;7.734;2022-07-29T11:24:42;3.30;;;2.15;;
23614;SDS011;11985;49.404;7.734;2022-07-29T11:26:44;6.15;;;1.92;;
23614;SDS011;11985;49.404;7.734;2022-07-29T11:28:48;5.60;;;2.20;;
23614;SDS011;11985;49.404;7.734;2022-07-29T11:30:53;3.03;;;1.80;;
23614;SDS011;11985;49.404;7.734;2022-07-29T11:32:56;6.20;;;2.20;;
23614;SDS011;11985;49.404;7.734;2022-07-29T11:35:12;4.68;;;1.95;;
23614;SDS011;11985;49.404;7.734;2022-07-29T11:37:20;2.85;;;1.80;;
23614;SDS011;11985;49.404;7.734;2022-07-29T11:39:27;3.35;;;1.90;;
23614;SDS011;11985;49.404;7.734;2022-07-29T11:41:29;4.20;;;2.15;;
23614;SDS011;11985;49.404;7.734;2022-07-29T11:43:49;5.18;;;1.95;;
23614;SDS011;11985;49.404;7.734;2022-07-29T11:45:56;5.00;;;2.00;;
23614;SDS011;11985;49.404;7.734;2022-07-29T11:48:00;3.78;;;1.90;;
23614;SDS011;11985;49.404;7.734;2022-07-29T11:50:05;4.13;;;1.80;;
23614;SDS011;11985;49.404;7.734;2022-07-29T11:52:08;5.93;;;2.65;;
23614;SDS011;11985;49.404;7.734;2022-07-29T11:54:11;7.43;;;1.95;;
23614;SDS011;11985;49.404;7.734;2022-07-29T11:56:18;6.00;;;2.00;;
23614;SDS011;11985;49.404;7.734;2022-07-29T11:58:22;5.43;;;1.80;;
23614;SDS011;11985;49.404;7.734;2022-07-29T12:00:26;4.82;;;2.00;;
23614;SDS011;11985;49.404;7.734;2022-07-29T12:02:39;3.35;;;1.90;;
23614;SDS011;11985;49.404;7.734;2022-07-29T12:04:47;4.80;;;2.00;;
23614;SDS011;11985;49.404;7.734;2022-07-29T12:06:49;3.35;;;1.67;;
23614;SDS011;11985;49.404;7.734;2022-07-29T12:08:51;3.90;;;1.73;;
23614;SDS011;11985;49.404;7.734;2022-07-29T12:10:53;4.53;;;1.52;;
23614;SDS011;11985;49.404;7.734;2022-07-29T12:12:54;4.18;;;1.90;;
23614;SDS011;11985;49.404;7.734;2022-07-29T12:14:56;4.15;;;1.73;;
23614;SDS011;11985;49.404;7.734;2022-07-29T12:16:58;3.47;;;2.00;;
23614;SDS011;11985;49.404;7.734;2022-07-29T12:19:03;4.63;;;1.63;;
23614;SDS011;11985;49.404;7.734;2022-07-29T12:21:05;7.45;;;1.67;;
23614;SDS011;11985;49.404;7.734;2022-07-29T12:23:08;5.13;;;1.70;;
23614;SDS011;11985;49.404;7.734;2022-07-29T12:25:12;4.80;;;2.20;;
23614;SDS011;11985;49.404;7.734;2022-07-29T12:27:16;4.50;;;2.00;;
23614;SDS011;11985;49.404;7.734;2022-07-29T12:29:19;3.17;;;1.85;;
23614;SDS011;11985;49.404;7.734;2022-07-29T12:31:20;3.45;;;1.80;;
23614;SDS011;11985;49.404;7.734;2022-07-29T12:33:23;4.95;;;1.80;;
23614;SDS011;11985;49.404;7.734;2022-07-29T12:35:27;5.03;;;1.70;;
23614;SDS011;11985;49.404;7.734;2022-07-29T12:37:29;4.30;;;1.70;;
23614;SDS011;11985;49.404;7.734;2022-07-29T12:39:31;2.75;;;1.73;;
23614;SDS011;11985;49.404;7.734;2022-07-29T12:41:33;4.07;;;1.40;;
23614;SDS011;11985;49.404;7.734;2022-07-29T12:43:35;2.40;;;1.70;;
23614;SDS011;11985;49.404;7.734;2022-07-29T12:45:37;3.35;;;1.60;;
23614;SDS011;11985;49.404;7.734;2022-07-29T12:47:50;5.40;;;1.60;;
23614;SDS011;11985;49.404;7.734;2022-07-29T12:50:07;3.92;;;1.77;;
23614;SDS011;11985;49.404;7.734;2022-07-29T12:52:31;3.63;;;1.42;;
23614;SDS011;11985;49.404;7.734;2022-07-29T12:54:34;2.88;;;1.65;;
23614;SDS011;11985;49.404;7.734;2022-07-29T12:56:35;2.10;;;1.55;;
23614;SDS011;11985;49.404;7.734;2022-07-29T12:58:38;5.63;;;1.73;;
23614;SDS011;11985;49.404;7.734;2022-07-29T13:00:41;3.75;;;1.80;;
23614;SDS011;11985;49.404;7.734;2022-07-29T13:02:43;2.33;;;1.60;;
23614;SDS011;11985;49.404;7.734;2022-07-29T13:04:55;4.43;;;1.95;;
23614;SDS011;11985;49.404;7.734;2022-07-29T13:06:58;8.70;;;1.88;;
23614;SDS011;11985;49.404;7.734;2022-07-29T13:09:04;2.42;;;1.63;;
23614;SDS011;11985;49.404;7.734;2022-07-29T13:11:08;4.45;;;1.58;;
23614;SDS011;11985;49.404;7.734;2022-07-29T13:13:10;8.43;;;1.92;;
23614;SDS011;11985;49.404;7.734;2022-07-29T13:15:13;8.63;;;2.30;;
23614;SDS011;11985;49.404;7.734;2022-07-29T13:17:17;3.78;;;1.63;;
23614;SDS011;11985;49.404;7.734;2022-07-29T13:19:19;5.60;;;1.77;;
23614;SDS011;11985;49.404;7.734;2022-07-29T13:21:20;5.80;;;1.70;;
23614;SDS011;11985;49.404;7.734;2022-07-29T13:23:22;3.78;;;1.75;;
23614;SDS011;11985;49.404;7.734;2022-07-29T13:25:25;3.33;;;1.80;;
23614;SDS011;11985;49.404;7.734;2022-07-29T13:27:29;4.22;;;1.70;;
23614;SDS011;11985;49.404;7.734;2022-07-29T13:29:32;2.92;;;1.50;;
23614;SDS011;11985;49.404;7.734;2022-07-29T13:31:34;5.18;;;2.00;;
23614;SDS011;11985;49.404;7.734;2022-07-29T13:33:36;6.72;;;1.65;;
23614;SDS011;11985;49.404;7.734;2022-07-29T13:35:38;7.32;;;1.58;;
23614;SDS011;11985;49.404;7.734;2022-07-29T13:37:40;6.50;;;1.58;;
23614;SDS011;11985;49.404;7.734;2022-07-29T13:39:42;5.82;;;1.35;;
23614;SDS011;11985;49.404;7.734;2022-07-29T13:41:45;3.45;;;1.40;;
23614;SDS011;11985;49.404;7.734;2022-07-29T13:43:47;4.00;;;1.67;;
23614;SDS011;11985;49.404;7.734;2022-07-29T13:45:50;8.68;;;1.65;;
23614;SDS011;11985;49.404;7.734;2022-07-29T13:47:52;10.55;;;1.90;;
23614;SDS011;11985;49.404;7.734;2022-07-29T13:49:54;4.40;;;1.85;;
23614;SDS011;11985;49.404;7.734;2022-07-29T13:51:56;3.47;;;1.45;;